Time;durP1;ratioP1;P1;durP2;ratioP2;P2;SDS_P1;SDS_P2;PMS_P1;PMS_P2;Temp;Humidity;BMP_temperature;BMP_pressure;BME280_temperature;BME280_humidity;BME280_pressure;Samples;Min_cycle;Max_cycle;Signal;HPM_P1;HPM_P2
2022/01/04 00:00:11;;;;;;;78.90;41.83;;;256.50;1817.60;;;;;;5054029;28;20025;-60
2022/01/04 00:02:37;;;;;;;68.47;41.05;;;256.40;1792.00;;;;;;5053460;28;20024;-60
2022/01/04 00:05:04;;;;;;;73.30;41.25;;;256.40;1792.00;;;;;;5052241;28;20045;-60
2022/01/04 00:07:31;;;;;;;64.63;38.95;;;256.40;1792.00;;;;;;5051836;28;20035;-60
2022/01/04 00:09:57;;;;;;;62.65;39.35;;;256.30;1766.40;;;;;;5052242;28;20069;-60
2022/01/04 00:15:08;;;;;;;58.80;36.80;;;256.40;1792.00;;;;;;5054109;28;20039;-60
2022/01/04 00:17:34;;;;;;;62.20;35.58;;;256.30;1766.40;;;;;;5053363;28;20025;-59
2022/01/04 00:20:00;;;;;;;60.50;36.83;;;256.30;1792.00;;;;;;5053146;28;20381;-60
2022/01/04 00:22:26;;;;;;;57.17;35.17;;;256.10;1766.40;;;;;;5053259;28;20017;-60
2022/01/04 00:24:52;;;;;;;64.72;37.33;;;256.10;1766.40;;;;;;5053491;28;20351;-60
2022/01/04 00:27:17;;;;;;;58.83;35.13;;;256.10;1792.00;;;;;;5051948;28;20044;-60
2022/01/04 00:29:43;;;;;;;55.60;34.10;;;256.10;1792.00;;;;;;5053413;28;20021;-60
2022/01/04 00:32:09;;;;;;;55.25;33.85;;;256.00;1792.00;;;;;;5053512;28;20515;-60
2022/01/04 00:34:35;;;;;;;63.13;38.70;;;256.00;1817.60;;;;;;5053455;28;20124;-60
2022/01/04 00:37:01;;;;;;;66.03;40.28;;;256.00;1792.00;;;;;;5053010;28;20032;-60
2022/01/04 00:39:27;;;;;;;62.08;37.17;;;256.10;1792.00;;;;;;5053011;28;20095;-60
2022/01/04 00:41:52;;;;;;;61.08;39.53;;;256.00;1792.00;;;;;;5053436;28;20035;-60
2022/01/04 00:44:18;;;;;;;65.38;40.08;;;256.00;1792.00;;;;;;5053164;28;20024;-60
2022/01/04 00:46:44;;;;;;;62.35;39.42;;;256.00;1817.60;;;;;;5052627;28;20037;-60
2022/01/04 00:49:10;;;;;;;58.83;36.90;;;231.30;1792.00;;;;;;5053086;28;20017;-59
2022/01/04 00:51:50;;;;;;;64.63;38.47;;;231.30;1792.00;;;;;;5052969;28;20512;-60
2022/01/04 00:54:16;;;;;;;61.83;37.35;;;231.30;1792.00;;;;;;5053100;28;20017;-60
2022/01/04 00:56:43;;;;;;;62.92;37.28;;;231.30;1792.00;;;;;;5052786;28;20021;-60
2022/01/04 00:59:09;;;;;;;54.67;35.28;;;231.30;1792.00;;;;;;5053184;28;20485;-60
2022/01/04 01:01:36;;;;;;;55.63;35.03;;;231.30;1792.00;;;;;;5052948;28;20017;-60
2022/01/04 01:04:02;;;;;;;55.92;34.92;;;231.30;1792.00;;;;;;5051669;28;20033;-60
2022/01/04 01:06:28;;;;;;;60.05;36.65;;;231.30;1792.00;;;;;;5052655;28;20052;-59
2022/01/04 01:08:54;;;;;;;59.97;35.65;;;231.20;1766.40;;;;;;5053095;28;20025;-60
2022/01/04 01:11:20;;;;;;;58.92;37.00;;;231.20;1792.00;;;;;;5053134;28;20479;-59
2022/01/04 01:13:46;;;;;;;61.63;36.30;;;231.20;1792.00;;;;;;5054622;28;20467;-59
2022/01/04 01:16:12;;;;;;;61.65;36.92;;;231.20;1792.00;;;;;;5056790;28;20033;-60
2022/01/04 01:18:39;;;;;;;63.47;36.55;;;231.20;1792.00;;;;;;5056457;28;20021;-59
2022/01/04 01:21:06;;;;;;;63.45;35.47;;;231.10;1792.00;;;;;;5056331;28;20021;-60
2022/01/04 01:23:34;;;;;;;58.63;34.45;;;231.20;1792.00;;;;;;5056555;28;20079;-60
2022/01/04 01:26:00;;;;;;;56.00;34.88;;;231.20;1792.00;;;;;;5056296;28;20029;-60
2022/01/04 01:28:27;;;;;;;57.25;34.63;;;231.00;1817.60;;;;;;5056262;28;20021;-59
2022/01/04 01:30:53;;;;;;;55.25;33.63;;;231.10;1817.60;;;;;;5056132;28;20120;-59
2022/01/04 01:33:19;;;;;;;53.70;33.55;;;230.90;1792.00;;;;;;5054918;28;20108;-60
2022/01/04 01:35:45;;;;;;;60.40;33.53;;;231.00;1817.60;;;;;;5056095;28;20378;-60
2022/01/04 01:38:14;;;;;;;55.20;33.58;;;231.00;1817.60;;;;;;5055494;28;20025;-59
2022/01/04 01:40:40;;;;;;;55.10;33.95;;;230.90;1817.60;;;;;;5056172;28;20028;-60
2022/01/04 01:43:07;;;;;;;54.67;34.35;;;231.00;1817.60;;;;;;5054764;28;20105;-60
2022/01/04 01:45:34;;;;;;;52.13;31.65;;;230.80;1817.60;;;;;;5055788;28;20467;-60
2022/01/04 01:48:00;;;;;;;54.90;33.55;;;230.90;1817.60;;;;;;5055602;28;20025;-60
2022/01/04 01:50:26;;;;;;;56.90;35.10;;;230.90;1817.60;;;;;;5056150;28;20382;-60
2022/01/04 01:52:53;;;;;;;55.78;36.78;;;230.80;1817.60;;;;;;5055881;28;20120;-59
2022/01/04 01:55:21;;;;;;;61.17;36.05;;;230.90;1817.60;;;;;;5055603;28;20035;-59
2022/01/04 01:57:49;;;;;;;59.17;34.67;;;230.80;1817.60;;;;;;5055767;28;20017;-59
2022/01/04 02:00:19;;;;;;;59.05;35.45;;;230.90;1843.20;;;;;;5055545;28;20040;-59
2022/01/04 02:02:45;;;;;;;56.85;35.08;;;230.90;1843.20;;;;;;5054318;28;20029;-59
2022/01/04 02:05:11;;;;;;;55.17;32.90;;;230.80;1843.20;;;;;;5055550;28;20372;-60
2022/01/04 02:07:40;;;;;;;53.35;33.50;;;230.80;1843.20;;;;;;5055594;28;20056;-59
2022/01/04 02:10:07;;;;;;;48.78;32.05;;;230.80;1843.20;;;;;;5055743;28;20097;-60
2022/01/04 02:12:39;;;;;;;50.85;31.15;;;230.80;1843.20;;;;;;5055583;28;20075;-59
2022/01/04 02:15:07;;;;;;;52.38;31.80;;;230.90;1843.20;;;;;;5055386;28;20021;-60
2022/01/04 02:17:33;;;;;;;51.95;30.90;;;230.80;1843.20;;;;;;5055505;28;20033;-60
2022/01/04 02:20:00;;;;;;;55.95;33.33;;;230.80;1843.20;;;;;;5055356;28;20142;-59
2022/01/04 02:22:27;;;;;;;50.20;31.10;;;230.90;1843.20;;;;;;5055298;28;20040;-59
2022/01/04 02:24:54;;;;;;;54.13;32.58;;;230.90;1843.20;;;;;;5054882;28;20033;-60
2022/01/04 02:27:20;;;;;;;53.25;31.13;;;231.00;1843.20;;;;;;5055031;28;20363;-59
2022/01/04 02:29:47;;;;;;;50.80;30.80;;;231.00;1843.20;;;;;;5055268;28;20027;-60
2022/01/04 02:32:14;;;;;;;53.78;32.42;;;231.00;1817.60;;;;;;5054962;28;20033;-60
2022/01/04 02:34:41;;;;;;;49.30;31.35;;;231.00;1843.20;;;;;;5055007;28;20442;-59
2022/01/04 02:37:07;;;;;;;46.97;29.80;;;231.00;1817.60;;;;;;5054819;28;20029;-59
2022/01/04 02:39:38;;;;;;;47.20;29.95;;;231.00;1817.60;;;;;;5055067;28;20024;-60
2022/01/04 02:42:05;;;;;;;47.17;30.00;;;231.00;1817.60;;;;;;5055017;28;20449;-60
2022/01/04 02:44:31;;;;;;;47.25;29.20;;;231.00;1817.60;;;;;;5055091;28;20108;-59
2022/01/04 02:46:57;;;;;;;47.75;29.15;;;231.00;1817.60;;;;;;5054411;28;20036;-60
2022/01/04 02:49:23;;;;;;;48.42;28.85;;;231.00;1817.60;;;;;;5054753;28;20466;-60
2022/01/04 02:51:49;;;;;;;48.85;30.67;;;230.90;1843.20;;;;;;5054601;28;20040;-60
2022/01/04 02:54:15;;;;;;;43.30;27.80;;;230.90;1817.60;;;;;;5053178;28;20075;-59
2022/01/04 02:56:40;;;;;;;48.58;29.83;;;231.00;1817.60;;;;;;5054495;28;20028;-59
2022/01/04 02:59:06;;;;;;;48.60;30.10;;;231.00;1817.60;;;;;;5054748;28;20108;-60
2022/01/04 03:01:32;;;;;;;44.42;29.13;;;231.00;1817.60;;;;;;5054648;28;20378;-60
2022/01/04 03:03:57;;;;;;;47.20;30.73;;;231.00;1817.60;;;;;;5054532;28;20074;-60
2022/01/04 03:06:24;;;;;;;49.38;30.33;;;231.00;1817.60;;;;;;5054174;28;20444;-59
2022/01/04 03:08:50;;;;;;;43.55;28.20;;;231.00;1817.60;;;;;;5053285;28;20408;-59
2022/01/04 03:11:15;;;;;;;45.55;29.13;;;231.00;1792.00;;;;;;5054159;28;20052;-59
2022/01/04 03:13:41;;;;;;;53.35;31.83;;;231.00;1817.60;;;;;;5054411;28;20116;-59
2022/01/04 03:16:07;;;;;;;52.63;33.00;;;230.90;1817.60;;;;;;5054759;28;20375;-59
2022/01/04 03:18:33;;;;;;;52.58;32.30;;;230.90;1817.60;;;;;;5054225;28;20029;-59
2022/01/04 03:20:59;;;;;;;49.10;30.42;;;230.90;1817.60;;;;;;5054097;28;20399;-59
2022/01/04 03:23:25;;;;;;;48.13;29.27;;;230.80;1817.60;;;;;;5053781;28;20025;-59
2022/01/04 03:25:50;;;;;;;45.60;28.95;;;230.80;1817.60;;;;;;5054123;28;20025;-59
2022/01/04 03:28:19;;;;;;;45.70;29.13;;;230.80;1817.60;;;;;;5053866;28;20025;-59
2022/01/04 03:30:46;;;;;;;43.47;28.65;;;230.80;1792.00;;;;;;5052574;28;20120;-59
2022/01/04 03:33:11;;;;;;;42.03;26.80;;;230.80;1792.00;;;;;;5054160;28;20505;-59
2022/01/04 03:35:37;;;;;;;44.72;27.80;;;230.70;1792.00;;;;;;5053450;28;20052;-59
2022/01/04 03:38:03;;;;;;;43.53;27.42;;;230.80;1792.00;;;;;;5053678;28;20024;-59
2022/01/04 03:40:29;;;;;;;43.63;28.08;;;230.80;1792.00;;;;;;5053851;28;20025;-59
2022/01/04 03:42:55;;;;;;;48.85;29.25;;;230.70;1817.60;;;;;;5054051;28;20017;-60
2022/01/04 03:45:20;;;;;;;43.33;27.20;;;230.70;1792.00;;;;;;5053560;28;20079;-59
2022/01/04 03:47:46;;;;;;;42.20;26.77;;;230.70;1792.00;;;;;;5053350;28;20044;-59
2022/01/04 03:50:12;;;;;;;40.40;27.05;;;230.70;1792.00;;;;;;5053617;28;20032;-59
2022/01/04 03:52:38;;;;;;;40.83;27.05;;;230.60;1792.00;;;;;;5053719;28;20017;-59
2022/01/04 03:55:08;;;;;;;40.85;26.05;;;230.60;1792.00;;;;;;5053530;28;20043;-59
2022/01/04 03:57:35;;;;;;;42.85;25.40;;;230.60;1817.60;;;;;;5053655;28;20051;-59
2022/01/04 04:00:04;;;;;;;38.05;25.77;;;230.60;1792.00;;;;;;5053520;28;20031;-59
2022/01/04 04:02:30;;;;;;;42.20;26.80;;;230.60;1792.00;;;;;;5053498;28;20029;-59
2022/01/04 04:04:56;;;;;;;37.25;26.25;;;230.60;1792.00;;;;;;5053508;28;20064;-59
2022/01/04 04:07:22;;;;;;;41.70;25.30;;;230.50;1792.00;;;;;;5053423;28;20037;-59
2022/01/04 04:09:47;;;;;;;43.03;27.15;;;230.50;1792.00;;;;;;5053705;28;20029;-59
2022/01/04 04:12:14;;;;;;;40.85;25.42;;;230.50;1792.00;;;;;;5054001;28;20454;-59
2022/01/04 04:14:40;;;;;;;43.10;26.30;;;230.50;1817.60;;;;;;5053505;28;20040;-59
2022/01/04 04:17:06;;;;;;;41.65;26.98;;;230.60;1792.00;;;;;;5053297;28;20051;-59
2022/01/04 04:19:32;;;;;;;39.20;26.63;;;230.50;1792.00;;;;;;5053521;28;20025;-59
2022/01/04 04:21:57;;;;;;;39.92;26.27;;;230.50;1792.00;;;;;;5053295;28;20017;-59
2022/01/04 04:24:23;;;;;;;40.70;25.98;;;230.50;1792.00;;;;;;5053285;28;20373;-60
2022/01/04 04:26:49;;;;;;;38.97;25.83;;;230.40;1817.60;;;;;;5053229;28;20041;-60
2022/01/04 04:29:14;;;;;;;43.17;27.05;;;230.50;1792.00;;;;;;5053476;28;20029;-60
2022/01/04 04:31:40;;;;;;;40.92;26.50;;;230.40;1792.00;;;;;;5053531;28;20040;-60
2022/01/04 04:34:06;;;;;;;46.15;27.27;;;230.40;1792.00;;;;;;5053177;28;20112;-60
2022/01/04 04:36:31;;;;;;;44.92;28.35;;;230.40;1792.00;;;;;;5053214;28;20029;-60
2022/01/04 04:38:57;;;;;;;41.97;26.38;;;230.50;1792.00;;;;;;5053333;28;20018;-59
2022/01/04 04:41:23;;;;;;;45.28;28.48;;;230.40;1792.00;;;;;;5053139;28;20028;-59
2022/01/04 04:43:54;;;;;;;51.17;29.30;;;230.40;1792.00;;;;;;5053331;28;20025;-59
2022/01/04 04:46:20;;;;;;;47.97;30.02;;;230.40;1792.00;;;;;;5051611;28;20053;-59
2022/01/04 04:48:46;;;;;;;47.17;29.92;;;205.70;1792.00;;;;;;5055098;28;20029;-59
2022/01/04 04:51:11;;;;;;;45.28;28.33;;;205.70;1817.60;;;;;;5056927;28;20112;-60
2022/01/04 04:53:37;;;;;;;44.92;28.42;;;205.70;1792.00;;;;;;5057098;28;20021;-60
2022/01/04 04:56:03;;;;;;;50.47;28.48;;;205.70;1817.60;;;;;;5056874;28;20033;-60
2022/01/04 04:58:29;;;;;;;44.22;28.85;;;205.70;1792.00;;;;;;5056972;28;20107;-60
2022/01/04 05:00:55;;;;;;;46.70;29.98;;;205.70;1792.00;;;;;;5056975;28;20108;-59
2022/01/04 05:03:20;;;;;;;43.70;28.40;;;205.70;1817.60;;;;;;5057008;28;20466;-60
2022/01/04 05:05:46;;;;;;;42.85;28.40;;;205.70;1792.00;;;;;;5055186;28;20045;-59
2022/01/04 05:08:12;;;;;;;45.45;30.50;;;205.70;1817.60;;;;;;5056877;28;20021;-59
2022/01/04 05:10:37;;;;;;;46.30;29.20;;;205.70;1792.00;;;;;;5056788;28;20418;-60
2022/01/04 05:13:03;;;;;;;47.38;29.88;;;205.70;1792.00;;;;;;5056935;28;20379;-60
2022/01/04 05:15:29;;;;;;;51.70;31.38;;;205.70;1817.60;;;;;;5056703;28;20083;-60
2022/01/04 05:17:54;;;;;;;50.47;34.45;;;205.70;1792.00;;;;;;5056187;28;20410;-59
2022/01/04 05:20:20;;;;;;;56.55;32.90;;;205.70;1817.60;;;;;;5056742;28;20060;-59
2022/01/04 05:22:46;;;;;;;51.55;32.00;;;205.70;1792.00;;;;;;5055089;28;20025;-59
2022/01/04 05:25:12;;;;;;;50.50;32.28;;;205.70;1817.60;;;;;;5056358;28;20033;-59
2022/01/04 05:27:37;;;;;;;50.22;31.85;;;205.70;1817.60;;;;;;5056345;28;20029;-59
2022/01/04 05:30:05;;;;;;;54.00;31.95;;;205.60;1792.00;;;;;;5056643;28;20025;-59
2022/01/04 05:32:30;;;;;;;52.17;32.58;;;205.60;1817.60;;;;;;5056117;28;20040;-59
2022/01/04 05:34:56;;;;;;;52.38;32.22;;;205.60;1817.60;;;;;;5055733;28;20021;-59
2022/01/04 05:37:22;;;;;;;55.90;33.55;;;205.60;1792.00;;;;;;5056311;28;20024;-59
2022/01/04 05:39:48;;;;;;;56.17;34.63;;;205.50;1817.60;;;;;;5055850;28;20032;-59
2022/01/04 05:42:13;;;;;;;51.55;34.15;;;205.50;1792.00;;;;;;5056002;28;20029;-59
2022/01/04 05:44:39;;;;;;;53.42;32.78;;;205.50;1817.60;;;;;;5056110;28;20078;-60
2022/01/04 05:47:06;;;;;;;49.70;31.30;;;205.50;1817.60;;;;;;5055878;28;20029;-59
2022/01/04 05:49:32;;;;;;;51.80;31.30;;;205.60;1792.00;;;;;;5055813;28;20025;-59
2022/01/04 05:51:58;;;;;;;54.70;32.55;;;205.50;1817.60;;;;;;5055852;28;20032;-59
2022/01/04 05:54:23;;;;;;;56.88;34.15;;;205.50;1817.60;;;;;;5055724;28;20482;-60
2022/01/04 05:56:49;;;;;;;48.05;32.30;;;205.50;1817.60;;;;;;5055942;28;20111;-61
2022/01/04 05:59:15;;;;;;;53.65;32.00;;;205.50;1817.60;;;;;;5055371;28;20021;-60
2022/01/04 06:01:40;;;;;;;53.08;31.98;;;205.40;1817.60;;;;;;5055788;28;20062;-59
2022/01/04 06:04:06;;;;;;;52.55;32.15;;;205.40;1817.60;;;;;;5055290;28;20076;-59
2022/01/04 06:06:32;;;;;;;45.58;30.48;;;205.40;1817.60;;;;;;5055246;28;20049;-59
2022/01/04 06:08:59;;;;;;;50.15;30.80;;;205.40;1817.60;;;;;;5055477;28;20064;-59
2022/01/04 06:11:56;;;;;;;54.67;32.17;;;205.30;1817.60;;;;;;5055625;28;20374;-59
2022/01/04 06:17:08;;;;;;;53.50;31.83;;;205.40;1792.00;;;;;;5055402;28;20032;-59
2022/01/04 06:19:33;;;;;;;44.05;30.48;;;205.30;1792.00;;;;;;5055427;28;20140;-60
2022/01/04 06:21:59;;;;;;;48.20;31.02;;;205.30;1817.60;;;;;;5055342;28;20112;-59
2022/01/04 06:24:25;;;;;;;47.25;30.15;;;205.30;1792.00;;;;;;5055193;28;20526;-59
2022/01/04 06:26:52;;;;;;;50.05;29.75;;;205.30;1817.60;;;;;;5055070;28;20071;-59
2022/01/04 06:29:20;;;;;;;57.80;32.17;;;205.30;1792.00;;;;;;5055290;28;20029;-59
2022/01/04 06:31:45;;;;;;;49.78;30.40;;;205.30;1792.00;;;;;;5055095;28;20029;-59
2022/01/04 06:34:12;;;;;;;46.95;28.90;;;205.30;1817.60;;;;;;5055301;28;20027;-59
2022/01/04 06:36:38;;;;;;;51.15;29.63;;;205.30;1792.00;;;;;;5055116;28;20036;-59
2022/01/04 06:39:04;;;;;;;46.22;29.48;;;205.30;1817.60;;;;;;5054862;28;20025;-60
2022/01/04 06:41:29;;;;;;;49.85;30.73;;;205.40;1792.00;;;;;;5054948;28;20040;-60
2022/01/04 06:43:55;;;;;;;50.70;29.95;;;205.30;1817.60;;;;;;5054758;28;20528;-59
2022/01/04 06:46:21;;;;;;;55.13;31.02;;;205.30;1817.60;;;;;;5054845;28;20192;-59
2022/01/04 06:48:46;;;;;;;49.30;31.30;;;205.40;1817.60;;;;;;5054788;28;20031;-59
2022/01/04 06:51:12;;;;;;;59.38;31.88;;;205.30;1817.60;;;;;;5054756;28;20450;-59
2022/01/04 06:53:38;;;;;;;48.90;30.88;;;205.30;1817.60;;;;;;5054656;28;20032;-59
2022/01/04 06:56:04;;;;;;;53.63;31.27;;;205.30;1817.60;;;;;;5054392;28;20067;-60
2022/01/04 06:58:30;;;;;;;53.95;32.15;;;205.40;1817.60;;;;;;5054540;28;20096;-59
2022/01/04 07:00:56;;;;;;;59.05;34.63;;;205.40;1817.60;;;;;;5054550;28;20029;-60
2022/01/04 07:03:22;;;;;;;53.78;33.88;;;205.40;1817.60;;;;;;5054457;28;20386;-59
2022/01/04 07:05:47;;;;;;;53.92;34.15;;;205.50;1792.00;;;;;;5053979;28;20049;-59
2022/01/04 07:08:13;;;;;;;52.42;31.48;;;205.50;1817.60;;;;;;5054419;28;20103;-61
2022/01/04 07:10:39;;;;;;;46.22;30.90;;;205.60;1817.60;;;;;;5053534;28;20080;-60
2022/01/04 07:13:04;;;;;;;50.92;30.58;;;205.70;1792.00;;;;;;5054302;28;20025;-60
2022/01/04 07:15:30;;;;;;;47.85;29.05;;;205.60;1817.60;;;;;;5054665;28;20355;-60
2022/01/04 07:17:56;;;;;;;42.30;26.42;;;205.70;1817.60;;;;;;5054322;28;20021;-61
2022/01/04 07:20:21;;;;;;;41.22;26.60;;;205.70;1817.60;;;;;;5054324;28;20394;-61
2022/01/04 07:22:47;;;;;;;54.78;33.40;;;230.40;1792.00;;;;;;5053443;28;20029;-60
2022/01/04 07:25:13;;;;;;;56.15;33.10;;;230.80;2252.80;;;;;;5054056;28;20482;-60
2022/01/04 07:27:39;;;;;;;67.07;38.78;;;231.30;2252.80;;;;;;5053868;28;20467;-59
2022/01/04 07:30:05;;;;;;;64.90;37.92;;;256.10;2048.00;;;;;;5054097;28;20029;-65
2022/01/04 07:32:31;;;;;;;66.60;35.42;;;256.30;1971.20;;;;;;5053481;28;20478;-59
2022/01/04 07:34:57;;;;;;;58.22;35.40;;;256.20;1843.20;;;;;;5053858;28;20039;-59
2022/01/04 07:37:23;;;;;;;59.38;31.75;;;256.00;1766.40;;;;;;5053746;28;20029;-59
2022/01/04 07:39:50;;;;;;;52.42;31.63;;;256.00;1766.40;;;;;;5053767;28;20025;-59
2022/01/04 07:42:16;;;;;;;61.17;33.08;;;231.30;1740.80;;;;;;5053507;28;20029;-59
2022/01/04 07:44:42;;;;;;;57.63;32.65;;;231.20;1766.40;;;;;;5053617;28;20033;-59
2022/01/04 07:47:07;;;;;;;46.03;27.65;;;231.20;1766.40;;;;;;5053482;28;20040;-59
2022/01/04 07:49:33;;;;;;;44.78;27.33;;;231.10;1766.40;;;;;;5053788;28;20028;-61
2022/01/04 07:51:59;;;;;;;45.05;24.55;;;231.10;1792.00;;;;;;5053661;28;20024;-61
2022/01/04 07:54:25;;;;;;;57.08;26.08;;;231.30;1996.80;;;;;;5053250;28;20029;-60
2022/01/04 07:56:53;;;;;;;47.15;28.08;;;256.20;1945.60;;;;;;5053625;28;20055;-60
2022/01/04 07:59:19;;;;;;;42.75;25.58;;;256.30;1817.60;;;;;;5053674;28;20025;-60
2022/01/04 08:01:45;;;;;;;43.30;25.27;;;256.20;1740.80;;;;;;5053774;28;20039;-59
2022/01/04 08:04:11;;;;;;;40.47;26.27;;;256.20;1766.40;;;;;;5052198;28;20549;-59
2022/01/04 08:06:37;;;;;;;46.35;27.45;;;256.00;1766.40;;;;;;5053097;28;20059;-58
2022/01/04 08:09:03;;;;;;;40.05;25.05;;;256.00;1766.40;;;;;;5053477;28;20528;-60
2022/01/04 08:11:29;;;;;;;44.90;27.75;;;256.00;1792.00;;;;;;5053860;28;20459;-59
2022/01/04 08:13:55;;;;;;;54.95;32.92;;;231.30;1792.00;;;;;;5053418;28;20036;-59
2022/01/04 08:16:20;;;;;;;61.47;38.85;;;231.30;1843.20;;;;;;5053543;28;20116;-59
2022/01/04 08:18:46;;;;;;;84.35;39.63;;;256.20;1894.40;;;;;;5052103;28;20033;-59
2022/01/04 08:21:12;;;;;;;52.97;33.28;;;256.30;1843.20;;;;;;5053318;28;20033;-60
2022/01/04 08:23:37;;;;;;;50.85;32.05;;;256.30;1817.60;;;;;;5057072;28;20029;-59
2022/01/04 08:26:04;;;;;;;47.05;29.60;;;256.30;1817.60;;;;;;5057285;28;20037;-59
2022/01/04 08:28:30;;;;;;;45.85;30.40;;;256.30;1817.60;;;;;;5057345;28;20054;-60
2022/01/04 08:30:55;;;;;;;50.30;31.00;;;256.30;1817.60;;;;;;5057070;28;20115;-59
2022/01/04 08:33:21;;;;;;;45.78;29.65;;;256.30;1817.60;;;;;;5057345;28;20403;-60
2022/01/04 08:35:47;;;;;;;45.00;29.58;;;256.40;1817.60;;;;;;5057420;28;20478;-60
2022/01/04 08:38:13;;;;;;;42.90;27.20;;;256.30;1843.20;;;;;;5055957;28;20391;-59
2022/01/04 08:40:39;;;;;;;50.00;29.33;;;256.40;1843.20;;;;;;5057276;28;20025;-59
2022/01/04 08:43:05;;;;;;;51.55;28.67;;;256.40;1843.20;;;;;;5055674;28;20528;-59
2022/01/04 08:45:32;;;;;;;42.55;26.80;;;256.40;1868.80;;;;;;5057362;28;20027;-59
2022/01/04 08:47:58;;;;;;;40.47;27.75;;;256.50;1843.20;;;;;;5057115;28;20028;-59
2022/01/04 08:50:24;;;;;;;44.92;28.05;;;256.50;1868.80;;;;;;5056966;28;20031;-60
2022/01/04 08:52:51;;;;;;;52.67;28.83;;;256.60;1843.20;;;;;;5057022;28;20033;-60
2022/01/04 08:55:17;;;;;;;58.00;32.45;;;256.60;1868.80;;;;;;5056921;28;20386;-60
2022/01/04 08:57:43;;;;;;;54.88;33.25;;;256.60;1868.80;;;;;;5056931;28;20344;-59
2022/01/04 09:00:10;;;;;;;55.33;34.50;;;256.70;1843.20;;;;;;5057220;28;20040;-59
2022/01/04 09:02:36;;;;;;;52.05;34.65;;;256.70;1868.80;;;;;;5056734;28;20048;-59
2022/01/04 09:05:03;;;;;;;62.25;33.28;;;256.70;1868.80;;;;;;5056161;28;20439;-60
2022/01/04 09:07:29;;;;;;;52.85;30.75;;;256.80;1894.40;;;;;;5056501;28;20048;-59
2022/01/04 09:09:55;;;;;;;56.28;32.80;;;281.60;1920.00;;;;;;5056951;28;20025;-59
2022/01/04 09:12:25;;;;;;;58.70;33.50;;;281.60;1894.40;;;;;;5056687;28;20162;-59
2022/01/04 09:20:08;;;;;;;61.63;39.83;;;281.70;1894.40;;;;;;5056759;28;20063;-59
2022/01/04 09:22:34;;;;;;;66.20;39.78;;;281.80;1920.00;;;;;;5056368;28;20025;-59
2022/01/04 09:25:00;;;;;;;60.28;36.50;;;281.80;1920.00;;;;;;5056434;28;20028;-59
2022/01/04 09:27:26;;;;;;;56.17;35.28;;;281.80;1894.40;;;;;;5055028;28;20052;-59
2022/01/04 09:29:52;;;;;;;59.78;36.50;;;281.90;1894.40;;;;;;5054640;28;20067;-59
2022/01/04 09:32:19;;;;;;;51.17;33.78;;;281.90;1920.00;;;;;;5056398;28;20359;-59
2022/01/04 09:34:45;;;;;;;59.15;34.95;;;282.00;1920.00;;;;;;5055392;28;20079;-59
2022/01/04 09:37:11;;;;;;;56.80;37.05;;;282.00;1920.00;;;;;;5055117;28;20060;-59
2022/01/04 09:39:36;;;;;;;55.50;35.67;;;282.10;1945.60;;;;;;5056323;28;20477;-60
2022/01/04 09:42:03;;;;;;;66.78;41.53;;;282.10;1945.60;;;;;;5054927;28;20032;-59
2022/01/04 09:44:28;;;;;;;86.68;51.38;;;282.10;1920.00;;;;;;5056465;28;20025;-59
2022/01/04 09:46:55;;;;;;;93.63;55.35;;;282.20;1920.00;;;;;;5055602;28;20466;-59
2022/01/04 09:49:21;;;;;;;78.20;46.75;;;282.20;1945.60;;;;;;5054463;28;20442;-60
2022/01/04 09:51:48;;;;;;;64.10;38.38;;;282.20;1920.00;;;;;;5055886;28;20131;-59
2022/01/04 09:54:22;;;;;;;62.33;36.90;;;282.30;1920.00;;;;;;5054442;28;20024;-60
2022/01/04 09:56:48;;;;;;;52.88;34.38;;;282.40;1945.60;;;;;;5055590;28;20033;-60
2022/01/04 09:59:14;;;;;;;53.55;33.05;;;282.40;1920.00;;;;;;5055955;28;20021;-60
2022/01/04 10:01:41;;;;;;;56.08;31.38;;;282.50;1945.60;;;;;;5055759;28;20051;-59
2022/01/04 10:04:07;;;;;;;56.75;32.83;;;307.20;1971.20;;;;;;5054513;28;20078;-61
2022/01/04 10:06:34;;;;;;;56.83;35.03;;;307.20;1971.20;;;;;;5055377;28;20053;-59
2022/01/04 10:09:11;;;;;;;63.92;34.75;;;307.30;1971.20;;;;;;5054587;28;20021;-64
2022/01/04 10:11:42;;;;;;;61.65;34.55;;;307.50;1996.80;;;;;;5054107;28;20033;-60
2022/01/04 10:14:28;;;;;;;60.97;39.10;;;307.60;1971.20;;;;;;5055512;28;20031;-65
2022/01/04 10:17:15;;;;;;;59.13;36.35;;;307.70;1945.60;;;;;;5055454;28;20032;-63
2022/01/04 10:19:50;;;;;;;140.52;72.75;;;307.80;1920.00;;;;;;5055408;28;20119;-65
2022/01/04 10:22:18;;;;;;;;;;;307.80;1920.00;;;;;;5056072;28;20023;-61
2022/01/04 10:25:00;;;;;;;85.60;47.80;;;307.80;1920.00;;;;;;5055273;28;19908;-65
2022/01/04 10:27:36;;;;;;;64.05;37.30;;;307.90;1920.00;;;;;;5055352;28;20044;-61
2022/01/04 10:30:09;;;;;;;59.38;33.78;;;307.90;1945.60;;;;;;5055845;28;20017;-60
2022/01/04 10:32:54;;;;;;;51.47;31.50;;;308.10;1920.00;;;;;;5055318;28;20025;-63
2022/01/04 10:35:44;;;;;;;48.30;30.08;;;332.80;1945.60;;;;;;5055149;28;20025;-60
2022/01/04 10:38:16;;;;;;;69.20;42.45;;;332.80;1920.00;;;;;;5054883;28;20544;-60
2022/01/04 10:41:06;;;;;;;88.68;50.75;;;332.90;1945.60;;;;;;5054882;28;20409;-61
2022/01/04 10:43:47;;;;;;;98.82;58.33;;;333.00;1920.00;;;;;;5054923;28;20052;-61
2022/01/04 10:46:17;;;;;;;76.05;45.83;;;333.10;1920.00;;;;;;5053893;28;20037;-60
2022/01/04 10:48:48;;;;;;;56.38;34.22;;;333.10;1920.00;;;;;;5054847;28;20044;-61
2022/01/04 10:51:17;;;;;;;63.15;33.67;;;333.20;1920.00;;;;;;5054653;28;20025;-60
2022/01/04 10:53:48;;;;;;;79.10;44.30;;;333.30;1920.00;;;;;;5054903;28;20033;-61
2022/01/04 10:56:16;;;;;;;61.03;34.85;;;333.40;1894.40;;;;;;5054551;28;20107;-61
2022/01/04 10:58:45;;;;;;;48.75;29.55;;;333.50;1920.00;;;;;;5054816;28;20029;-67
2022/01/04 11:01:12;;;;;;;47.22;29.92;;;333.60;1868.80;;;;;;5054723;28;20497;-67
2022/01/04 11:03:44;;;;;;;46.70;27.10;;;358.40;1868.80;;;;;;5054791;28;20079;-61
2022/01/04 11:06:12;;;;;;;40.95;24.10;;;358.40;1868.80;;;;;;5054366;28;20067;-62
2022/01/04 11:08:40;;;;;;;48.65;29.38;;;358.50;1817.60;;;;;;5054666;28;20021;-62
2022/01/04 11:11:06;;;;;;;52.88;32.33;;;358.60;1817.60;;;;;;5054396;28;20049;-68
2022/01/04 11:13:31;;;;;;;64.53;32.33;;;358.60;1792.00;;;;;;5054314;28;20055;-67
2022/01/04 11:15:57;;;;;;;53.20;31.63;;;358.80;1817.60;;;;;;5054452;28;20037;-63
2022/01/04 11:18:24;;;;;;;45.85;28.20;;;358.90;1817.60;;;;;;5054487;28;20021;-61
2022/01/04 11:20:50;;;;;;;53.08;31.27;;;358.90;1792.00;;;;;;5054328;28;20490;-68
2022/01/04 11:23:21;;;;;;;44.58;28.27;;;359.00;1766.40;;;;;;5054157;28;20447;-64
2022/01/04 11:25:48;;;;;;;48.42;31.25;;;359.10;1740.80;;;;;;5054185;28;20029;-61
2022/01/04 11:28:15;;;;;;;56.08;29.08;;;359.10;1740.80;;;;;;5054166;28;20033;-63
2022/01/04 11:31:08;;;;;;;43.63;29.15;;;359.10;1740.80;;;;;;5054123;28;20020;-64
2022/01/04 11:33:46;;;;;;;46.65;27.90;;;359.10;1740.80;;;;;;5054019;28;20037;-73
2022/01/04 11:36:17;;;;;;;40.03;26.38;;;359.30;1740.80;;;;;;5054098;28;20029;-63
2022/01/04 11:38:44;;;;;;;42.65;24.95;;;359.30;1740.80;;;;;;5054019;28;20550;-63
2022/01/04 11:41:24;;;;;;;45.53;26.63;;;384.00;1740.80;;;;;;5054044;28;20056;-63
2022/01/04 11:43:50;;;;;;;43.25;26.77;;;384.10;1715.20;;;;;;5053737;28;20025;-63
2022/01/04 11:46:34;;;;;;;48.55;28.35;;;384.10;1715.20;;;;;;5053703;28;20065;-60
2022/01/04 11:49:11;;;;;;;46.05;28.90;;;384.20;1715.20;;;;;;5053771;28;20032;-60
2022/01/04 11:51:42;;;;;;;43.40;26.38;;;384.20;1715.20;;;;;;5053794;28;20025;-59
2022/01/04 11:54:29;;;;;;;45.40;24.33;;;384.40;1715.20;;;;;;5053773;28;20517;-60
2022/01/04 11:57:16;;;;;;;37.83;22.23;;;384.40;1715.20;;;;;;5052209;28;20146;-58
2022/01/04 11:59:45;;;;;;;47.05;23.13;;;384.50;1689.60;;;;;;5053795;28;20108;-59
2022/01/04 12:02:32;;;;;;;49.40;25.63;;;384.50;1689.60;;;;;;5053697;28;20032;-59
2022/01/04 12:05:01;;;;;;;42.10;26.73;;;384.50;1689.60;;;;;;5053571;28;20399;-67
2022/01/04 12:07:44;;;;;;;38.22;24.45;;;384.50;1689.60;;;;;;5052066;28;20056;-67
2022/01/04 12:10:19;;;;;;;38.55;23.65;;;384.60;1689.60;;;;;;5053735;28;20478;-61